createdAt,value
2023-01-23T00:01:07.536Z,101173.28
2023-01-23T00:03:35.181Z,101167.78
2023-01-23T00:06:05.182Z,101161.34
2023-01-23T00:08:34.822Z,101161.19
2023-01-23T00:11:06.082Z,101168.53
2023-01-23T00:13:33.643Z,101168.09
2023-01-23T00:16:05.187Z,101165.19
2023-01-23T00:18:32.860Z,101161.66
2023-01-23T00:21:04.052Z,101165.25
2023-01-23T00:23:31.636Z,101179.56
2023-01-23T00:26:04.943Z,101174.38
2023-01-23T00:28:32.829Z,101172.84
2023-01-23T00:31:05.411Z,101174.53
2023-01-23T00:33:33.797Z,101164.88
2023-01-23T00:36:01.784Z,101172.16
2023-01-23T00:38:29.350Z,101167.31
2023-01-23T00:40:57.101Z,101171.44
2023-01-23T00:43:26.564Z,101164.34
2023-01-23T00:45:54.180Z,101167.91
2023-01-23T00:48:21.772Z,101164.09
2023-01-23T00:50:49.657Z,101164.03
2023-01-23T00:53:17.378Z,101167.16
2023-01-23T00:55:45.041Z,101171.31
2023-01-23T00:58:12.651Z,101163.28
2023-01-23T01:00:42.023Z,101164.25
2023-01-23T01:03:10.038Z,101171.91
2023-01-23T01:05:37.864Z,101170.63
2023-01-23T01:08:06.207Z,101175.50
2023-01-23T01:10:34.115Z,101177.44
2023-01-23T01:13:04.058Z,101177.31
2023-01-23T01:15:31.679Z,101173.53
2023-01-23T01:18:00.573Z,101177.75
2023-01-23T01:20:29.762Z,101182.81
2023-01-23T01:22:59.088Z,101181.38
2023-01-23T01:25:26.713Z,101182.28
2023-01-23T01:27:55.838Z,101186.13
2023-01-23T01:30:25.537Z,101180.34
2023-01-23T01:32:54.067Z,101184.19
2023-01-23T01:35:23.946Z,101178.53
2023-01-23T01:37:52.160Z,101181.06
2023-01-23T01:40:22.453Z,101175.75
2023-01-23T01:42:53.677Z,101181.13
2023-01-23T01:45:58.600Z,101180.22
2023-01-23T01:48:30.856Z,101183.44
2023-01-23T01:51:02.673Z,101189.38
2023-01-23T01:53:32.399Z,101187.63
2023-01-23T01:56:00.214Z,101197.78
2023-01-23T01:58:29.452Z,101194.41
2023-01-23T02:00:57.093Z,101200.59
2023-01-23T02:03:26.478Z,101201.16
2023-01-23T02:05:54.239Z,101204.84
2023-01-23T02:08:28.613Z,101201.53
2023-01-23T02:10:56.826Z,101200.31
2023-01-23T02:13:30.261Z,101208.75
2023-01-23T02:15:59.366Z,101197.47
2023-01-23T02:18:28.874Z,101202.53
2023-01-23T02:20:59.144Z,101210.91
2023-01-23T02:23:38.487Z,101212.56
2023-01-23T02:26:10.312Z,101214.28
2023-01-23T02:28:40.205Z,101213.38
2023-01-23T02:31:08.547Z,101204.66
2023-01-23T02:33:48.319Z,101203.03
2023-01-23T02:36:17.422Z,101209.41
2023-01-23T02:38:54.546Z,101210.41
2023-01-23T02:41:28.512Z,101211.41
2023-01-23T02:43:58.013Z,101209.88
2023-01-23T02:46:26.222Z,101204.00
2023-01-23T02:48:54.155Z,101213.97
2023-01-23T02:51:22.692Z,101216.69
2023-01-23T02:53:50.673Z,101218.31
2023-01-23T02:56:18.756Z,101217.34
2023-01-23T02:59:05.293Z,101213.50
2023-01-23T03:01:35.798Z,101213.03
2023-01-23T03:04:06.299Z,101222.75
2023-01-23T03:06:37.903Z,101217.34
2023-01-23T03:09:09.031Z,101212.31
2023-01-23T03:11:39.269Z,101218.97
2023-01-23T03:14:10.684Z,101214.38
2023-01-23T03:16:38.808Z,101220.31
2023-01-23T03:19:09.024Z,101221.78
2023-01-23T03:21:40.239Z,101220.88
2023-01-23T03:24:09.090Z,101221.22
2023-01-23T03:26:39.207Z,101213.25
2023-01-23T03:29:26.408Z,101217.09
2023-01-23T03:31:54.040Z,101208.69
2023-01-23T03:34:22.382Z,101208.59
2023-01-23T03:36:49.921Z,101214.47
2023-01-23T03:39:35.231Z,101214.22
2023-01-23T03:42:02.861Z,101218.41
2023-01-23T03:44:31.817Z,101216.78
2023-01-23T03:46:59.412Z,101213.16
2023-01-23T03:49:27.079Z,101224.03
2023-01-23T03:51:54.606Z,101222.56
2023-01-23T03:54:22.192Z,101225.88
2023-01-23T03:56:49.831Z,101222.34
2023-01-23T03:59:17.398Z,101225.88
2023-01-23T04:01:47.906Z,101231.03
2023-01-23T04:04:15.622Z,101236.91
2023-01-23T04:06:43.265Z,101232.44
2023-01-23T04:09:11.020Z,101232.16
2023-01-23T04:11:38.589Z,101237.06
2023-01-23T04:14:06.428Z,101241.56
2023-01-23T04:16:34.171Z,101236.56
2023-01-23T04:19:03.281Z,101227.63
2023-01-23T04:21:30.856Z,101220.75
2023-01-23T04:24:00.226Z,101226.38
2023-01-23T04:26:27.767Z,101226.78
2023-01-23T04:28:55.315Z,101212.19
2023-01-23T04:31:22.984Z,101223.31
2023-01-23T04:33:50.658Z,101237.31
2023-01-23T04:36:19.624Z,101231.44
2023-01-23T04:38:47.158Z,101229.00
2023-01-23T04:41:20.243Z,101225.53
2023-01-23T04:43:47.812Z,101227.22
2023-01-23T04:46:15.452Z,101226.31
2023-01-23T04:48:43.405Z,101231.31
2023-01-23T04:51:11.504Z,101228.84
2023-01-23T04:53:40.429Z,101235.97
2023-01-23T04:56:08.265Z,101232.69
2023-01-23T04:58:35.891Z,101230.69
2023-01-23T05:01:04.277Z,101235.38
2023-01-23T05:03:32.951Z,101242.78
2023-01-23T05:06:00.498Z,101249.75
2023-01-23T05:08:28.063Z,101261.19
2023-01-23T05:10:57.158Z,101258.81
2023-01-23T05:13:24.722Z,101263.41
2023-01-23T05:15:52.319Z,101267.84
2023-01-23T05:18:19.855Z,101272.16
2023-01-23T05:20:47.477Z,101272.16
2023-01-23T05:23:15.163Z,101274.28
2023-01-23T05:25:42.867Z,101272.31
2023-01-23T05:28:11.950Z,101271.91
2023-01-23T05:30:39.958Z,101273.16
2023-01-23T05:33:07.601Z,101274.81
2023-01-23T05:35:35.298Z,101272.41
2023-01-23T05:38:02.825Z,101275.94
2023-01-23T05:40:30.432Z,101270.44
2023-01-23T05:42:58.060Z,101273.69
2023-01-23T05:45:27.588Z,101281.13
2023-01-23T05:47:55.721Z,101283.69
2023-01-23T05:50:24.679Z,101296.13
2023-01-23T05:52:52.303Z,101286.09
2023-01-23T05:55:19.927Z,101281.66
2023-01-23T05:57:47.567Z,101286.09
2023-01-23T06:00:16.466Z,101298.53
2023-01-23T06:02:47.315Z,101291.25
2023-01-23T06:05:15.014Z,101288.88
2023-01-23T06:07:42.624Z,101300.78
2023-01-23T06:10:11.402Z,101297.94
2023-01-23T06:12:39.007Z,101304.63
2023-01-23T06:15:07.640Z,101307.00
2023-01-23T06:17:35.271Z,101302.06
2023-01-23T06:20:04.711Z,101305.16
2023-01-23T06:22:32.288Z,101306.25
2023-01-23T06:24:59.873Z,101310.25
2023-01-23T06:27:27.661Z,101309.94
2023-01-23T06:29:55.356Z,101307.94
2023-01-23T06:32:23.921Z,101316.28
2023-01-23T06:34:51.544Z,101312.81
2023-01-23T06:37:20.503Z,101307.56
2023-01-23T06:39:48.122Z,101312.44
2023-01-23T06:42:15.702Z,101308.34
2023-01-23T06:44:43.582Z,101308.88
2023-01-23T06:47:11.671Z,101321.75
2023-01-23T06:49:39.367Z,101320.50
2023-01-23T06:52:07.036Z,101316.31
2023-01-23T06:54:36.289Z,101317.16
2023-01-23T06:57:05.522Z,101319.16
2023-01-23T06:59:33.319Z,101313.25
2023-01-23T07:02:00.993Z,101307.41
2023-01-23T07:04:28.603Z,101327.25
2023-01-23T07:06:56.195Z,101319.59
2023-01-23T07:09:23.796Z,101326.41
2023-01-23T07:11:52.907Z,101324.06
2023-01-23T07:14:20.549Z,101326.03
2023-01-23T07:16:48.135Z,101327.81
2023-01-23T07:19:15.766Z,101336.97
2023-01-23T07:22:07.928Z,101342.41
2023-01-23T07:24:35.513Z,101348.66
2023-01-23T07:27:04.649Z,101349.66
2023-01-23T07:29:32.305Z,101350.97
2023-01-23T07:32:00.793Z,101354.09
2023-01-23T07:34:28.384Z,101359.69
2023-01-23T07:36:55.922Z,101360.88
2023-01-23T07:39:23.618Z,101362.28
2023-01-23T07:41:51.366Z,101367.88
2023-01-23T07:44:23.023Z,101375.72
2023-01-23T07:46:50.786Z,101378.31
2023-01-23T07:49:18.399Z,101386.91
2023-01-23T07:51:45.993Z,101389.22
2023-01-23T07:54:13.543Z,101388.75
2023-01-23T07:56:41.224Z,101390.72
2023-01-23T07:59:09.060Z,101393.50
2023-01-23T08:01:38.032Z,101397.25
2023-01-23T08:04:05.748Z,101405.50
2023-01-23T08:06:34.120Z,101403.47
2023-01-23T08:09:01.666Z,101409.94
2023-01-23T08:11:29.228Z,101409.38
2023-01-23T08:13:56.788Z,101414.34
2023-01-23T08:16:24.471Z,101417.56
2023-01-23T08:18:54.026Z,101410.78
2023-01-23T08:21:21.731Z,101411.50
2023-01-23T08:23:49.333Z,101405.56
2023-01-23T08:26:18.620Z,101406.97
2023-01-23T08:28:47.054Z,101400.25
2023-01-23T08:31:15.486Z,101401.06
2023-01-23T08:33:43.467Z,101394.97
2023-01-23T08:36:14.084Z,101397.34
2023-01-23T08:38:41.765Z,101402.81
2023-01-23T08:41:11.703Z,101389.88
2023-01-23T08:43:41.396Z,101391.78
2023-01-23T08:46:10.233Z,101396.44
2023-01-23T08:48:38.835Z,101392.41
2023-01-23T08:51:08.572Z,101399.56
2023-01-23T08:53:38.140Z,101390.00
2023-01-23T08:56:08.356Z,101393.94
2023-01-23T08:58:35.967Z,101388.31
2023-01-23T09:01:03.642Z,101375.38
2023-01-23T09:03:31.459Z,101390.63
2023-01-23T09:06:02.050Z,101381.31
2023-01-23T09:08:29.663Z,101389.78
2023-01-23T09:11:02.778Z,101400.59
2023-01-23T09:13:31.166Z,101400.31
2023-01-23T09:15:59.039Z,101400.75
2023-01-23T09:18:26.808Z,101403.31
2023-01-23T09:20:55.180Z,101403.84
2023-01-23T09:23:23.680Z,101407.22
2023-01-23T09:25:51.529Z,101406.91
2023-01-23T09:28:20.476Z,101412.00
2023-01-23T09:30:48.084Z,101417.22
2023-01-23T09:33:16.934Z,101404.63
2023-01-23T09:35:45.440Z,101412.44
2023-01-23T09:38:13.002Z,101410.28
2023-01-23T09:40:49.315Z,101410.91
2023-01-23T09:43:22.218Z,101412.28
2023-01-23T09:45:59.362Z,101408.84
2023-01-23T09:48:31.595Z,101418.66
2023-01-23T09:51:05.400Z,101419.03
2023-01-23T09:53:37.546Z,101422.03
2023-01-23T09:56:15.402Z,101424.25
2023-01-23T09:58:51.135Z,101421.78
2023-01-23T10:01:20.222Z,101427.13
2023-01-23T10:03:47.884Z,101419.44
2023-01-23T10:06:23.104Z,101420.19
2023-01-23T10:09:18.650Z,101418.13
2023-01-23T10:11:59.091Z,101423.81
2023-01-23T10:14:46.643Z,101420.91
2023-01-23T10:17:23.479Z,101427.22
2023-01-23T10:20:04.410Z,101426.19
2023-01-23T10:22:38.321Z,101423.66
2023-01-23T10:25:14.190Z,101414.97
2023-01-23T10:27:45.225Z,101410.28
2023-01-23T10:30:22.371Z,101410.34
2023-01-23T10:32:53.720Z,101405.06
2023-01-23T10:35:26.002Z,101409.00
2023-01-23T10:38:01.756Z,101402.81
2023-01-23T10:40:47.177Z,101407.22
2023-01-23T10:43:16.211Z,101403.47
2023-01-23T10:45:45.353Z,101404.13
2023-01-23T10:48:39.887Z,101407.88
2023-01-23T10:51:26.721Z,101408.38
2023-01-23T10:54:17.029Z,101405.78
2023-01-23T10:56:58.154Z,101407.22
2023-01-23T10:59:35.479Z,101407.78
2023-01-23T11:02:23.117Z,101407.88
2023-01-23T11:04:52.837Z,101398.44
2023-01-23T11:07:22.101Z,101401.34
2023-01-23T11:09:53.484Z,101404.22
2023-01-23T11:12:23.695Z,101409.91
2023-01-23T11:14:52.896Z,101405.78
2023-01-23T11:17:24.098Z,101406.91
2023-01-23T11:19:54.679Z,101410.78
2023-01-23T11:22:28.484Z,101407.97
2023-01-23T11:24:56.316Z,101403.31
2023-01-23T11:27:28.079Z,101406.44
2023-01-23T11:30:31.168Z,101401.28
2023-01-23T11:33:05.289Z,101407.53
2023-01-23T11:35:49.306Z,101400.22
2023-01-23T11:38:30.283Z,101400.59
2023-01-23T11:40:58.948Z,101400.25
2023-01-23T11:43:27.048Z,101395.28
2023-01-23T11:46:10.805Z,101388.00
2023-01-23T11:48:55.801Z,101396.75
2023-01-23T11:51:31.918Z,101392.53
2023-01-23T11:54:07.924Z,101386.69
2023-01-23T11:56:54.059Z,101394.91
2023-01-23T11:59:47.640Z,101387.78
2023-01-23T12:02:41.250Z,101394.47
2023-01-23T12:05:24.563Z,101392.16
2023-01-23T12:08:04.145Z,101387.25
2023-01-23T12:10:43.463Z,101391.41
2023-01-23T12:13:27.588Z,101389.38
2023-01-23T12:16:08.212Z,101377.56
2023-01-23T12:18:48.007Z,101374.50
2023-01-23T12:21:19.387Z,101373.41
2023-01-23T12:24:13.342Z,101372.53
2023-01-23T12:26:51.104Z,101361.09
2023-01-23T12:29:47.807Z,101363.47
2023-01-23T12:32:34.585Z,101365.78
2023-01-23T12:35:18.693Z,101363.84
2023-01-23T12:37:59.530Z,101359.03
2023-01-23T12:40:34.694Z,101363.88
2023-01-23T12:43:10.271Z,101354.75
2023-01-23T12:45:42.237Z,101352.31
2023-01-23T12:48:15.684Z,101347.41
2023-01-23T12:50:47.379Z,101346.09
2023-01-23T12:53:17.233Z,101346.91
2023-01-23T12:55:56.740Z,101346.06
2023-01-23T12:58:28.000Z,101350.75
2023-01-23T13:01:07.807Z,101343.03
2023-01-23T13:03:46.568Z,101347.19
2023-01-23T13:06:29.907Z,101335.22
2023-01-23T13:09:17.448Z,101337.47
2023-01-23T13:11:58.729Z,101332.16
2023-01-23T13:15:06.831Z,101341.66
2023-01-23T13:17:38.033Z,101338.38
2023-01-23T13:20:39.588Z,101335.59
2023-01-23T13:23:26.715Z,101337.81
2023-01-23T13:26:29.970Z,101338.88
2023-01-23T13:29:03.836Z,101336.28
2023-01-23T13:31:41.285Z,101338.84
2023-01-23T13:34:38.019Z,101346.34
2023-01-23T13:37:34.289Z,101344.72
2023-01-23T13:40:16.707Z,101337.72
2023-01-23T13:42:44.798Z,101344.84
2023-01-23T13:45:38.194Z,101338.47
2023-01-23T14:20:23.826Z,101306.34
2023-01-23T14:22:55.634Z,101308.34
2023-01-23T14:25:23.765Z,101302.50
2023-01-23T14:28:03.297Z,101309.94
2023-01-23T14:30:31.643Z,101304.88
2023-01-23T14:33:01.006Z,101307.72
2023-01-23T14:35:30.991Z,101307.06
2023-01-23T14:38:00.972Z,101308.13
2023-01-23T14:40:35.357Z,101312.69
2023-01-23T14:43:08.564Z,101326.22
2023-01-23T14:45:38.432Z,101326.31
2023-01-23T14:48:14.658Z,101322.44
2023-01-23T14:50:42.857Z,101318.78
2023-01-23T14:53:15.495Z,101323.03
2023-01-23T14:55:48.321Z,101323.22
2023-01-23T14:58:22.425Z,101320.66
2023-01-23T15:00:51.056Z,101321.13
2023-01-23T15:03:38.424Z,101326.00
2023-01-23T15:06:10.839Z,101325.06
2023-01-23T15:08:38.990Z,101321.41
2023-01-23T15:11:11.857Z,101326.84
2023-01-23T15:13:46.701Z,101317.03
2023-01-23T15:16:18.984Z,101327.91
2023-01-23T15:18:55.594Z,101328.78
2023-01-23T15:21:29.761Z,101323.38
2023-01-23T15:24:06.325Z,101329.88
2023-01-23T15:26:35.638Z,101327.53
2023-01-23T15:29:05.962Z,101310.81
2023-01-23T15:31:35.625Z,101316.84
2023-01-23T15:34:21.511Z,101321.63
2023-01-23T15:36:51.011Z,101317.88
2023-01-23T15:39:23.682Z,101316.66
2023-01-23T15:41:54.277Z,101316.72
2023-01-23T15:44:25.170Z,101312.00
2023-01-23T15:46:54.161Z,101316.88
2023-01-23T15:49:26.117Z,101320.47
2023-01-23T15:51:57.371Z,101311.66
2023-01-23T15:54:29.616Z,101313.97
2023-01-23T15:57:07.067Z,101309.59
2023-01-23T15:59:36.252Z,101323.38
2023-01-23T16:02:04.407Z,101316.09
2023-01-23T16:04:33.483Z,101310.81
2023-01-23T16:07:04.325Z,101321.00
2023-01-23T16:09:34.720Z,101322.09
2023-01-23T16:12:03.529Z,101323.31
2023-01-23T16:14:31.303Z,101319.16
2023-01-23T16:17:11.410Z,101308.72
2023-01-23T16:19:45.512Z,101306.41
2023-01-23T16:22:15.860Z,101302.94
2023-01-23T16:24:43.705Z,101310.78
2023-01-23T16:27:18.111Z,101307.78
2023-01-23T16:29:46.416Z,101308.56
2023-01-23T16:32:14.129Z,101310.72
2023-01-23T16:34:41.797Z,101302.25
2023-01-23T16:37:16.109Z,101308.94
2023-01-23T16:39:46.061Z,101317.44
2023-01-23T16:42:19.562Z,101313.31
2023-01-23T16:44:47.257Z,101320.69
2023-01-23T16:47:14.944Z,101318.00
2023-01-23T16:49:52.004Z,101314.53
2023-01-23T16:52:26.171Z,101311.47
2023-01-23T16:54:55.501Z,101321.16
2023-01-23T16:57:23.708Z,101327.47
2023-01-23T16:59:51.979Z,101324.63
2023-01-23T17:02:23.476Z,101315.25
2023-01-23T17:04:51.244Z,101322.16
2023-01-23T17:07:21.267Z,101332.84
2023-01-23T17:09:49.385Z,101336.53
2023-01-23T17:12:20.898Z,101340.44
2023-01-23T17:14:52.613Z,101336.06
2023-01-23T17:17:27.628Z,101339.84
2023-01-23T17:19:55.622Z,101342.50
2023-01-23T17:22:27.053Z,101342.81
2023-01-23T17:24:54.896Z,101339.22
2023-01-23T17:27:22.549Z,101342.69
2023-01-23T17:29:50.402Z,101340.38
2023-01-23T17:32:27.961Z,101340.81
2023-01-23T17:34:56.020Z,101334.75
2023-01-23T17:37:25.149Z,101347.56
2023-01-23T17:39:52.926Z,101341.97
2023-01-23T17:42:22.033Z,101345.44
2023-01-23T17:44:50.492Z,101343.97
2023-01-23T17:47:18.313Z,101357.88
2023-01-23T17:49:51.061Z,101355.56
2023-01-23T17:52:20.312Z,101352.63
2023-01-23T17:54:49.430Z,101358.72
2023-01-23T17:57:17.105Z,101356.47
2023-01-23T17:59:45.232Z,101359.31
2023-01-23T18:02:24.936Z,101356.75
2023-01-23T18:04:52.602Z,101354.75
2023-01-23T18:07:20.501Z,101364.66
2023-01-23T18:09:49.461Z,101366.28
2023-01-23T18:12:25.830Z,101367.63
2023-01-23T18:14:57.112Z,101365.94
2023-01-23T18:17:35.183Z,101368.56
2023-01-23T18:20:03.696Z,101369.53
2023-01-23T18:22:31.898Z,101376.69
2023-01-23T18:25:01.500Z,101366.09
2023-01-23T18:27:38.735Z,101382.28
2023-01-23T18:30:34.759Z,101378.06
2023-01-23T18:33:22.637Z,101376.69
2023-01-23T18:36:19.163Z,101379.06
2023-01-23T18:39:04.132Z,101382.94
2023-01-23T18:41:33.453Z,101387.69
2023-01-23T18:44:08.340Z,101400.56
2023-01-23T18:46:36.254Z,101392.03
2023-01-23T18:49:04.682Z,101397.44
2023-01-23T18:51:40.114Z,101408.38
2023-01-23T18:54:21.495Z,101410.28
2023-01-23T18:57:02.138Z,101410.66
2023-01-23T18:59:38.516Z,101415.81
2023-01-23T19:02:17.575Z,101415.59
2023-01-23T19:04:50.855Z,101400.22
2023-01-23T19:07:20.047Z,101405.84
2023-01-23T19:09:48.631Z,101401.41
2023-01-23T19:12:28.558Z,101405.56
2023-01-23T19:15:24.537Z,101402.19
2023-01-23T19:18:00.589Z,101407.19
2023-01-23T19:20:33.965Z,101406.63
2023-01-23T19:23:12.553Z,101411.50
2023-01-23T19:25:40.817Z,101417.19
2023-01-23T19:28:11.841Z,101421.84
2023-01-23T19:30:40.371Z,101422.84
2023-01-23T19:33:08.249Z,101420.56
2023-01-23T19:35:35.855Z,101423.38
2023-01-23T19:38:03.602Z,101415.28
2023-01-23T19:40:31.911Z,101414.25
2023-01-23T19:43:13.653Z,101419.34
2023-01-23T19:45:43.154Z,101422.91
2023-01-23T19:48:11.369Z,101426.44
2023-01-23T19:50:39.659Z,101438.72
2023-01-23T19:53:07.988Z,101433.41
2023-01-23T19:55:38.284Z,101436.09
2023-01-23T19:58:06.165Z,101432.72
2023-01-23T20:00:36.132Z,101437.88
2023-01-23T20:03:05.328Z,101438.44
2023-01-23T20:05:33.122Z,101436.75
2023-01-23T20:08:01.100Z,101425.03
2023-01-23T20:10:29.194Z,101436.53
2023-01-23T20:12:56.897Z,101430.31
2023-01-23T20:15:27.027Z,101426.88
2023-01-23T20:17:55.368Z,101418.03
2023-01-23T20:20:24.667Z,101417.56
2023-01-23T20:22:52.500Z,101414.31
2023-01-23T20:25:20.597Z,101413.31
2023-01-23T20:27:48.484Z,101417.00
2023-01-23T20:30:18.709Z,101405.38
2023-01-23T20:32:46.563Z,101417.28
2023-01-23T20:35:14.393Z,101408.09
2023-01-23T20:37:43.442Z,101408.94
2023-01-23T20:40:12.433Z,101412.91
2023-01-23T20:42:41.034Z,101406.38
2023-01-23T20:45:09.796Z,101408.44
2023-01-23T20:47:37.993Z,101413.44
2023-01-23T20:50:06.393Z,101416.47
2023-01-23T20:52:51.604Z,101422.91
2023-01-23T20:55:20.925Z,101415.69
2023-01-23T20:58:06.293Z,101416.50
2023-01-23T21:00:33.997Z,101416.44
2023-01-23T21:03:01.724Z,101417.41
2023-01-23T21:05:29.649Z,101418.53
2023-01-23T21:07:57.428Z,101426.72
2023-01-23T21:10:26.757Z,101413.47
2023-01-23T21:12:54.424Z,101430.31
2023-01-23T21:15:22.607Z,101422.50
2023-01-23T21:17:50.811Z,101418.13
2023-01-23T21:20:18.797Z,101422.56
2023-01-23T21:22:46.477Z,101427.56
2023-01-23T21:25:14.087Z,101421.09
2023-01-23T21:27:43.115Z,101425.00
2023-01-23T21:30:11.873Z,101420.81
2023-01-23T21:32:39.537Z,101432.44
2023-01-23T21:35:07.791Z,101436.09
2023-01-23T21:37:35.355Z,101443.16
2023-01-23T21:40:03.011Z,101438.22
2023-01-23T21:42:30.639Z,101437.59
2023-01-23T21:44:59.663Z,101438.50
2023-01-23T21:47:27.281Z,101440.19
2023-01-23T21:49:54.843Z,101440.06
2023-01-23T21:52:22.469Z,101441.09
2023-01-23T21:54:50.051Z,101443.38
2023-01-23T21:57:17.797Z,101454.00
2023-01-23T22:00:06.003Z,101443.84
2023-01-23T22:02:33.997Z,101449.22
2023-01-23T22:05:01.644Z,101449.16
2023-01-23T22:07:29.323Z,101436.94
2023-01-23T22:09:57.254Z,101442.09
2023-01-23T22:12:25.874Z,101438.84
2023-01-23T22:14:54.847Z,101448.66
2023-01-23T22:17:22.413Z,101450.28
2023-01-23T22:19:51.758Z,101449.16
2023-01-23T22:22:20.664Z,101444.63
2023-01-23T22:24:48.387Z,101445.78
2023-01-23T22:27:15.974Z,101454.88
2023-01-23T22:29:43.990Z,101445.78
2023-01-23T22:32:11.664Z,101454.56
2023-01-23T22:34:39.437Z,101455.06
2023-01-23T22:37:08.402Z,101455.38
2023-01-23T22:39:35.988Z,101440.38
2023-01-23T22:42:03.733Z,101445.88
2023-01-23T22:44:31.429Z,101448.03
2023-01-23T22:46:59.053Z,101451.00
2023-01-23T22:49:26.734Z,101453.09
2023-01-23T22:51:54.503Z,101451.69
2023-01-23T22:54:23.527Z,101453.50
2023-01-23T22:56:51.206Z,101447.25
2023-01-23T22:59:18.786Z,101453.38
2023-01-23T23:01:46.423Z,101453.94
2023-01-23T23:04:14.024Z,101450.94
2023-01-23T23:06:41.589Z,101445.19
2023-01-23T23:09:10.589Z,101449.22
2023-01-23T23:11:40.358Z,101453.53
2023-01-23T23:14:07.933Z,101449.84
2023-01-23T23:16:35.566Z,101458.09
2023-01-23T23:19:05.115Z,101455.59
2023-01-23T23:21:34.301Z,101455.75
2023-01-23T23:24:02.446Z,101456.28
2023-01-23T23:26:31.671Z,101462.34
2023-01-23T23:29:01.146Z,101467.19
2023-01-23T23:31:29.263Z,101452.94
2023-01-23T23:33:57.362Z,101446.59
2023-01-23T23:36:25.545Z,101461.25
2023-01-23T23:38:53.135Z,101457.16
2023-01-23T23:41:21.263Z,101469.03
2023-01-23T23:43:49.032Z,101459.28
2023-01-23T23:46:18.364Z,101454.66
2023-01-23T23:48:48.003Z,101452.66
2023-01-23T23:51:18.604Z,101455.13
2023-01-23T23:53:47.121Z,101449.88
2023-01-23T23:56:21.153Z,101453.66
2023-01-23T23:58:48.977Z,101448.34
